Time;durP1;ratioP1;P1;durP2;ratioP2;P2;SDS_P1;SDS_P2;PMS_P1;PMS_P2;Temp;Humidity;BMP_temperature;BMP_pressure;BME280_temperature;BME280_humidity;BME280_pressure;Samples;Min_cycle;Max_cycle;Signal;HPM_P1;HPM_P2
2022/03/16 00:01:29;;;;;;;;;16.75;16.75;;;;;13.00;67.38;101741.69;6280109;22;47055;-79
2022/03/16 00:03:55;;;;;;;;;18.50;16.00;;;;;13.02;67.55;101743.44;6279482;22;45465;-79
2022/03/16 00:06:20;;;;;;;;;15.75;14.75;;;;;12.98;67.44;101732.84;6279067;22;45310;-80
2022/03/16 00:08:46;;;;;;;;;19.75;17.00;;;;;13.01;67.64;101735.50;6277200;22;45769;-80
2022/03/16 00:11:11;;;;;;;;;18.50;17.25;;;;;13.06;67.43;101741.69;6279498;22;46794;-80
2022/03/16 00:13:39;;;;;;;;;18.25;17.00;;;;;13.02;67.56;101729.34;6278747;22;45367;-81
2022/03/16 00:16:05;;;;;;;;;20.00;19.75;;;;;13.06;67.52;101739.03;6304496;22;45457;-80
2022/03/16 00:18:30;;;;;;;;;20.50;18.50;;;;;13.04;67.58;101735.50;6304410;22;45495;-80
2022/03/16 00:20:56;;;;;;;;;18.50;15.00;;;;;13.05;67.63;101750.50;6277463;22;47317;-80
2022/03/16 00:23:21;;;;;;;;;19.25;18.50;;;;;13.05;68.04;101745.22;6275683;22;45420;-80
2022/03/16 00:25:47;;;;;;;;;18.00;18.00;;;;;13.11;67.63;101753.16;6295480;22;45325;-80
2022/03/16 00:28:15;;;;;;;;;18.50;16.50;;;;;13.08;67.66;101739.06;6304906;22;45568;-80
2022/03/16 00:30:43;;;;;;;;;17.00;15.25;;;;;13.07;67.81;101732.88;6306255;22;46583;-80
2022/03/16 00:33:11;;;;;;;;;18.25;17.25;;;;;13.10;67.40;101737.31;6330438;22;45764;-79
2022/03/16 00:35:39;;;;;;;;;20.75;17.50;;;;;13.16;67.50;101740.81;6305432;22;45803;-79
2022/03/16 00:38:05;;;;;;;;;20.25;18.00;;;;;13.17;67.39;101739.06;6306505;22;45360;-77
2022/03/16 00:40:34;;;;;;;;;8.00;8.00;;;;;13.20;67.32;101742.59;6304943;22;46510;-77
2022/03/16 00:43:02;;;;;;;;;17.25;16.00;;;;;13.20;67.66;101747.00;6305188;22;45394;-77
2022/03/16 00:45:27;;;;;;;;;20.75;18.75;;;;;13.19;67.42;101748.75;6303414;22;45419;-77
2022/03/16 00:47:53;;;;;;;;;20.75;18.75;;;;;13.14;67.45;101736.41;6303576;22;45971;-77
2022/03/16 00:50:20;;;;;;;;;9.00;8.00;;;;;13.17;67.35;101728.47;6303568;22;47035;-77
2022/03/16 00:52:46;;;;;;;;;21.00;19.50;;;;;13.22;67.47;101732.00;6330098;22;45307;-77
2022/03/16 00:55:11;;;;;;;;;21.25;18.75;;;;;13.18;67.27;101731.13;6303815;22;45360;-77
2022/03/16 00:57:42;;;;;;;;;19.00;16.00;;;;;13.21;67.42;101717.91;6303972;22;45544;-77
2022/03/16 01:00:10;;;;;;;;;21.25;17.75;;;;;13.23;67.54;101716.16;6332309;22;45965;-77
2022/03/16 01:02:38;;;;;;;;;16.75;15.00;;;;;13.21;67.33;101717.91;6308994;22;45427;-77
2022/03/16 01:05:06;;;;;;;;;16.75;15.00;;;;;13.16;67.20;101703.81;6307396;22;45352;-77
2022/03/16 01:07:32;;;;;;;;;12.75;12.00;;;;;13.15;67.32;101706.44;6308004;22;45411;-77
2022/03/16 01:09:57;;;;;;;;;15.00;15.00;;;;;13.16;67.31;101703.81;6305376;22;46416;-78
2022/03/16 01:12:23;;;;;;;;;17.75;17.75;;;;;13.16;67.30;101701.16;6308283;22;45279;-77
2022/03/16 01:14:54;;;;;;;;;17.25;16.75;;;;;13.19;67.04;101718.78;6306640;22;45529;-77
2022/03/16 01:17:19;;;;;;;;;19.50;18.25;;;;;13.20;67.31;101712.63;6306375;22;45362;-77
2022/03/16 01:19:45;;;;;;;;;16.00;16.00;;;;;13.14;67.27;101705.56;6305145;22;46851;-77
2022/03/16 01:22:10;;;;;;;;;16.25;16.25;;;;;13.10;67.19;101689.72;6306243;22;45343;-77
2022/03/16 01:24:36;;;;;;;;;14.50;13.75;;;;;13.16;67.09;101689.72;6306597;22;45492;-76
2022/03/16 01:27:01;;;;;;;;;14.50;14.25;;;;;13.13;67.53;101690.59;6280321;22;45576;-77
2022/03/16 01:29:27;;;;;;;;;16.00;15.50;;;;;13.03;67.46;101683.53;6279942;22;48146;-77
2022/03/16 01:31:54;;;;;;;;;17.00;15.75;;;;;13.08;67.10;101686.19;6307841;22;45283;-77
2022/03/16 01:34:20;;;;;;;;;15.75;15.75;;;;;13.04;67.00;101674.69;6308123;22;45453;-77
2022/03/16 01:36:46;;;;;;;;;14.25;13.25;;;;;12.98;67.30;101670.28;6308190;22;45260;-77
2022/03/16 01:39:11;;;;;;;;;16.50;14.25;;;;;12.97;67.29;101676.47;6305499;22;46100;-77
2022/03/16 01:41:37;;;;;;;;;13.25;13.25;;;;;12.99;67.01;101672.06;6305780;22;45305;-77
2022/03/16 01:44:03;;;;;;;;;18.00;16.75;;;;;13.00;67.40;101673.81;6279134;22;45436;-77
2022/03/16 01:46:29;;;;;;;;;16.25;14.00;;;;;13.00;67.09;101686.16;6280502;22;45416;-77
2022/03/16 01:48:54;;;;;;;;;15.75;14.50;;;;;12.91;67.22;101665.00;6278585;22;46599;-78
2022/03/16 01:51:21;;;;;;;;;15.75;15.00;;;;;12.86;67.03;101662.38;6279347;22;45528;-76
2022/03/16 01:53:50;;;;;;;;;13.75;13.75;;;;;12.89;67.30;101675.56;6308009;22;45374;-78
2022/03/16 01:56:16;;;;;;;;;19.25;18.50;;;;;12.86;67.22;101672.06;6307154;22;45336;-77
2022/03/16 01:58:42;;;;;;;;;19.50;17.00;;;;;12.87;67.44;101679.09;6280309;22;46130;-78
2022/03/16 02:01:08;;;;;;;;;16.75;15.00;;;;;12.83;67.25;101685.25;6306206;22;45450;-77
2022/03/16 02:03:37;;;;;;;;;15.00;14.25;;;;;12.79;67.20;101672.03;6308716;22;45298;-77
2022/03/16 02:06:03;;;;;;;;;17.75;16.50;;;;;12.73;67.42;101666.72;6280319;22;45386;-78
2022/03/16 02:08:38;;;;;;;;;17.25;17.00;;;;;12.79;67.25;101684.34;6307934;22;45445;-77
2022/03/16 02:11:04;;;;;;;;;15.25;14.50;;;;;12.70;67.34;101673.78;6307125;22;45304;-76
2022/03/16 02:13:32;;;;;;;;;13.25;13.25;;;;;12.75;67.16;101687.84;6307820;22;45179;-77
2022/03/16 02:15:57;;;;;;;;;17.75;15.75;;;;;12.71;67.46;101679.06;6307500;22;45235;-77
2022/03/16 02:18:22;;;;;;;;;19.50;18.00;;;;;12.66;67.46;101667.59;6279960;22;48006;-76
2022/03/16 02:20:53;;;;;;;;;18.00;15.75;;;;;12.66;67.57;101667.59;6305198;22;45422;-76
2022/03/16 02:23:19;;;;;;;;;15.75;15.75;;;;;12.71;67.38;101672.91;6306770;22;45592;-76
2022/03/16 02:25:54;;;;;;;;;17.50;16.50;;;;;12.70;67.43;101672.00;6306845;22;45589;-77
2022/03/16 02:28:24;;;;;;;;;13.25;12.25;;;;;12.71;67.31;101664.97;6279709;22;46794;-77
2022/03/16 02:30:53;;;;;;;;;20.75;17.75;;;;;12.66;67.45;101664.06;6279647;22;45741;-77
2022/03/16 02:33:19;;;;;;;;;20.00;16.75;;;;;12.64;67.47;101657.88;6279940;22;45315;-77
2022/03/16 02:35:45;;;;;;;;;15.50;13.00;;;;;12.63;67.40;101658.78;6306708;22;45378;-77
2022/03/16 02:38:11;;;;;;;;;25.25;18.50;;;;;12.60;67.46;101650.84;6279889;22;46122;-76
2022/03/16 02:40:38;;;;;;;;;19.25;17.75;;;;;12.60;67.45;101654.38;6306553;22;45310;-76
2022/03/16 02:43:03;;;;;;;;;16.25;15.50;;;;;12.58;67.26;101651.72;6307911;22;45409;-76
2022/03/16 02:45:29;;;;;;;;;16.25;15.00;;;;;12.54;67.46;101652.59;6308734;22;45364;-77
2022/03/16 02:47:54;;;;;;;;;19.25;15.50;;;;;12.56;67.50;101650.84;6308981;22;45621;-76
2022/03/16 02:50:23;;;;;;;;;17.00;16.75;;;;;12.52;67.46;101649.06;6307954;22;45458;-77
2022/03/16 02:52:48;;;;;;;;;17.75;17.25;;;;;12.49;67.48;101654.34;6279719;22;45382;-77
2022/03/16 02:55:16;;;;;;;;;15.00;15.00;;;;;12.50;67.49;101657.84;6279878;22;45380;-77
2022/03/16 02:57:42;;;;;;;;;15.50;15.00;;;;;12.44;67.59;101649.94;6308364;22;45315;-77
2022/03/16 03:00:09;;;;;;;;;15.00;15.00;;;;;12.42;67.91;101644.63;6308473;22;45355;-77
2022/03/16 03:02:37;;;;;;;;;18.00;17.00;;;;;12.44;67.37;101642.00;6281429;22;45333;-77
2022/03/16 03:05:03;;;;;;;;;16.50;15.50;;;;;12.46;67.67;101653.47;6280430;22;45381;-77
2022/03/16 03:07:28;;;;;;;;;17.50;15.50;;;;;12.41;67.81;101642.00;6280374;22;48298;-77
2022/03/16 03:09:54;;;;;;;;;18.25;17.00;;;;;12.39;67.61;101647.25;6280509;22;45524;-77
2022/03/16 03:12:19;;;;;;;;;15.50;15.50;;;;;12.48;67.61;101659.59;6280064;22;45303;-77
2022/03/16 03:14:47;;;;;;;;;20.50;18.00;;;;;12.38;67.56;101649.91;6305654;22;45571;-77
2022/03/16 03:17:13;;;;;;;;;19.25;16.00;;;;;12.46;67.79;101661.38;6308945;22;46355;-77
2022/03/16 03:19:38;;;;;;;;;16.00;15.00;;;;;12.45;67.61;101654.31;6280285;22;45750;-77
2022/03/16 03:22:07;;;;;;;;;23.75;21.50;;;;;12.45;67.64;101662.25;6307892;22;45294;-77
2022/03/16 03:24:32;;;;;;;;;17.25;13.75;;;;;12.47;67.77;101658.72;6307723;22;45409;-77
2022/03/16 03:26:58;;;;;;;;;18.50;18.00;;;;;12.48;67.86;101656.97;6308462;22;46243;-77
2022/03/16 03:29:24;;;;;;;;;21.25;18.25;;;;;12.45;67.74;101651.69;6308418;22;45144;-77
2022/03/16 03:31:52;;;;;;;;;16.00;16.00;;;;;12.48;67.66;101654.31;6306987;22;45273;-77
2022/03/16 03:34:17;;;;;;;;;18.00;17.25;;;;;12.41;67.83;101640.22;6308661;22;45486;-78
2022/03/16 03:36:43;;;;;;;;;15.25;15.25;;;;;12.44;67.63;101655.22;6308742;22;46294;-78
2022/03/16 03:39:08;;;;;;;;;16.75;16.75;;;;;12.41;68.01;101650.78;6332529;22;45759;-78
2022/03/16 03:41:33;;;;;;;;;20.75;18.50;;;;;12.34;67.88;101649.88;6307168;22;45416;-77
2022/03/16 03:43:59;;;;;;;;;19.25;18.25;;;;;12.33;67.98;101644.59;6305733;22;45414;-77
2022/03/16 03:46:29;;;;;;;;;20.25;19.50;;;;;12.34;67.96;101649.88;6307117;22;48362;-77
2022/03/16 03:48:57;;;;;;;;;20.25;18.25;;;;;12.32;68.06;101642.81;6332576;22;45367;-78
2022/03/16 03:51:25;;;;;;;;;19.75;19.25;;;;;12.32;67.95;101646.38;6308694;22;45634;-78
2022/03/16 03:53:51;;;;;;;;;21.25;17.25;;;;;12.36;68.12;101653.41;6332566;22;45484;-78
2022/03/16 03:56:16;;;;;;;;;18.00;17.00;;;;;12.34;68.12;101652.53;6332088;22;48102;-78
2022/03/16 03:58:42;;;;;;;;;17.50;17.50;;;;;12.30;68.21;101640.19;6306315;22;45422;-78
2022/03/16 04:01:07;;;;;;;;;27.00;22.50;;;;;12.32;68.19;101649.00;6308507;22;45419;-78
2022/03/16 04:03:37;;;;;;;;;17.25;16.25;;;;;12.35;68.31;101656.94;6306672;22;45516;-78
2022/03/16 04:06:05;;;;;;;;;25.00;22.00;;;;;12.28;68.32;101633.16;6306405;22;47143;-78
2022/03/16 04:08:31;;;;;;;;;16.75;16.25;;;;;12.30;68.23;101631.41;6306318;22;45404;-78
2022/03/16 04:10:56;;;;;;;;;17.50;17.00;;;;;12.30;68.06;101631.41;6306358;22;45506;-78
2022/03/16 04:13:22;;;;;;;;;24.50;21.75;;;;;12.25;68.24;101626.09;6306793;22;45377;-78
2022/03/16 04:15:50;;;;;;;;;17.75;16.00;;;;;12.26;68.33;101626.97;6305412;22;45995;-78
2022/03/16 04:18:15;;;;;;;;;22.75;18.75;;;;;12.22;68.26;101627.84;6308907;22;45356;-77
2022/03/16 04:20:43;;;;;;;;;20.25;18.50;;;;;12.19;68.14;101617.25;6308174;22;45354;-77
2022/03/16 04:23:09;;;;;;;;;27.50;23.50;;;;;12.16;67.99;101609.31;6308556;22;45613;-77
2022/03/16 04:25:34;;;;;;;;;20.75;19.25;;;;;12.16;68.41;101609.31;6306067;22;47294;-78
2022/03/16 04:28:00;;;;;;;;;24.75;21.00;;;;;12.18;68.52;101611.09;6306620;22;45417;-78
2022/03/16 04:30:25;;;;;;;;;19.50;19.50;;;;;12.19;68.25;101618.16;6333160;22;45744;-78
2022/03/16 04:32:52;;;;;;;;;25.25;22.00;;;;;12.09;68.62;101605.81;6308370;22;45403;-78
2022/03/16 04:35:20;;;;;;;;;19.25;18.50;;;;;12.11;68.74;101607.56;6308047;22;45377;-77
2022/03/16 04:37:49;;;;;;;;;19.25;19.00;;;;;12.06;68.65;101588.19;6306542;22;45369;-77
2022/03/16 04:40:17;;;;;;;;;27.00;22.00;;;;;12.08;68.63;101597.00;6308386;22;45268;-78
2022/03/16 04:42:43;;;;;;;;;25.50;22.25;;;;;12.00;68.90;101582.91;6307433;22;45162;-77
2022/03/16 04:45:09;;;;;;;;;29.25;25.75;;;;;12.03;68.85;101590.81;6305950;22;48061;-78
2022/03/16 04:47:35;;;;;;;;;24.00;22.50;;;;;12.08;68.89;101607.56;6308159;22;45285;-77
2022/03/16 04:50:00;;;;;;;;;23.50;22.00;;;;;12.01;68.83;101591.69;6305940;22;45327;-77
2022/03/16 04:52:26;;;;;;;;;23.50;21.50;;;;;12.05;68.93;101604.00;6306703;22;45337;-78
2022/03/16 04:54:51;;;;;;;;;28.75;22.75;;;;;12.05;68.74;101610.16;6306049;22;47969;-78
2022/03/16 04:57:19;;;;;;;;;28.50;22.75;;;;;11.98;68.82;101596.97;6308670;22;45231;-76
2022/03/16 04:59:47;;;;;;;;;25.25;22.50;;;;;12.03;68.80;101616.31;6305595;22;45355;-77
2022/03/16 05:02:12;;;;;;;;;27.25;23.75;;;;;12.02;68.96;101602.25;6306592;22;45574;-78
2022/03/16 05:04:37;;;;;;;;;19.50;17.50;;;;;12.03;68.71;101605.75;6305415;22;46854;-77
2022/03/16 05:07:03;;;;;;;;;24.00;23.00;;;;;12.01;68.78;101610.16;6305869;22;45189;-77
2022/03/16 05:09:36;;;;;;;;;22.50;19.75;;;;;12.04;69.34;101608.41;6308620;22;45467;-77
2022/03/16 05:12:02;;;;;;;;;20.50;20.25;;;;;11.98;69.01;101592.56;6305809;22;45518;-77
2022/03/16 05:14:27;;;;;;;;;25.00;22.75;;;;;11.91;69.31;101593.41;6307501;22;46358;-78
2022/03/16 05:16:54;;;;;;;;;26.00;22.00;;;;;11.96;69.47;101596.06;6306091;22;45414;-77
2022/03/16 05:19:19;;;;;;;;;31.00;24.50;;;;;11.96;69.33;101596.06;6307915;22;45332;-78
2022/03/16 05:21:44;;;;;;;;;25.00;23.00;;;;;11.89;69.49;101580.22;6308528;22;45263;-77
2022/03/16 05:24:10;;;;;;;;;27.00;23.25;;;;;11.94;70.03;101601.31;6307827;22;46115;-78
2022/03/16 05:26:35;;;;;;;;;23.75;23.75;;;;;11.93;69.78;101602.22;6279601;22;45283;-76
2022/03/16 05:29:01;;;;;;;;;26.25;24.75;;;;;11.96;69.61;101609.25;6306224;22;45573;-77
2022/03/16 05:31:26;;;;;;;;;28.50;24.25;;;;;11.99;69.95;101625.97;6279331;22;45510;-78
2022/03/16 05:33:54;;;;;;;;;26.25;25.00;;;;;11.91;69.98;101604.81;6279821;22;47816;-78
2022/03/16 05:36:19;;;;;;;;;26.00;23.00;;;;;12.00;69.62;101617.22;6279803;22;45338;-77
2022/03/16 05:38:45;;;;;;;;;25.00;22.25;;;;;12.04;69.78;101615.44;6280226;22;45379;-77
2022/03/16 05:41:11;;;;;;;;;25.75;23.75;;;;;12.10;69.79;101629.53;6308313;22;45351;-78
2022/03/16 05:43:37;;;;;;;;;26.00;25.50;;;;;12.14;69.79;101633.97;6279933;22;48350;-77
2022/03/16 05:46:02;;;;;;;;;28.00;25.75;;;;;12.11;69.73;101626.03;6307543;22;45603;-77
2022/03/16 05:48:28;;;;;;;;;26.50;25.00;;;;;12.17;69.67;101629.59;6280337;22;45598;-77
2022/03/16 05:50:53;;;;;;;;;26.50;26.50;;;;;12.09;69.76;101611.94;6279871;22;45264;-77
2022/03/16 05:53:18;;;;;;;;;22.50;20.25;;;;;12.15;69.52;101626.94;6280427;22;45936;-77
2022/03/16 05:55:44;;;;;;;;;24.75;21.25;;;;;12.15;69.65;101616.38;6308195;22;45237;-77
2022/03/16 05:58:12;;;;;;;;;26.25;23.75;;;;;12.11;69.71;101615.50;6280001;22;45314;-76
2022/03/16 06:00:40;;;;;;;;;30.75;25.50;;;;;12.14;69.47;101626.06;6307669;22;45287;-77
2022/03/16 06:03:11;;;;;;;;;33.00;27.50;;;;;12.17;69.43;101638.38;6306738;22;45363;-78
2022/03/16 06:05:36;;;;;;;;;28.00;26.75;;;;;12.09;69.65;101614.59;6279300;22;45276;-76
2022/03/16 06:08:02;;;;;;;;;24.25;20.25;;;;;12.13;69.67;101616.38;6279917;22;45415;-77
2022/03/16 06:10:28;;;;;;;;;29.75;24.00;;;;;12.19;69.55;101630.44;6307733;22;45460;-77
2022/03/16 06:12:58;;;;;;;;;26.50;24.25;;;;;12.16;69.42;101626.03;6280440;22;46826;-77
2022/03/16 06:15:25;;;;;;;;;30.50;28.00;;;;;12.13;69.53;101624.31;6306987;22;45190;-78
2022/03/16 06:17:55;;;;;;;;;26.75;24.50;;;;;12.22;69.55;101634.00;6308001;22;45454;-77
2022/03/16 06:20:21;;;;;;;;;26.75;23.50;;;;;12.19;69.67;101617.25;6307796;22;45338;-77
2022/03/16 06:22:47;;;;;;;;;30.75;28.00;;;;;12.25;69.37;101622.59;6280418;22;48240;-78
2022/03/16 06:25:12;;;;;;;;;27.00;24.25;;;;;12.27;69.41;101619.06;6307519;22;45350;-77
2022/03/16 06:27:38;;;;;;;;;28.50;26.50;;;;;12.26;69.78;101624.31;6307105;22;45304;-77
2022/03/16 06:30:07;;;;;;;;;27.75;25.75;;;;;12.26;69.48;101632.25;6280369;22;45601;-78
2022/03/16 06:32:33;;;;;;;;;28.50;25.75;;;;;12.21;69.18;101632.22;6281588;22;47229;-78
2022/03/16 06:35:01;;;;;;;;;26.75;26.25;;;;;12.23;69.35;101641.03;6308405;22;45521;-77
2022/03/16 06:37:29;;;;;;;;;24.50;24.00;;;;;12.22;69.30;101651.63;6310091;22;45358;-78
2022/03/16 06:39:54;;;;;;;;;30.25;28.75;;;;;12.16;69.56;101651.56;6308871;22;45299;-77
2022/03/16 06:42:20;;;;;;;;;21.25;19.50;;;;;12.11;69.45;101646.28;6280259;22;47340;-78
2022/03/16 06:44:47;;;;;;;;;26.25;25.00;;;;;12.17;69.68;101643.66;6309020;22;45278;-77
2022/03/16 06:47:13;;;;;;;;;30.75;29.00;;;;;12.16;69.53;101659.47;6280542;22;45739;-78
2022/03/16 06:49:38;;;;;;;;;35.00;30.00;;;;;12.10;69.70;101645.38;6279769;22;45827;-78
2022/03/16 06:52:06;;;;;;;;;27.75;26.00;;;;;12.12;69.62;101656.84;6308551;22;46215;-77
2022/03/16 06:54:32;;;;;;;;;31.00;29.50;;;;;12.16;69.55;101663.00;6309578;22;45787;-78
2022/03/16 06:56:57;;;;;;;;;30.75;27.75;;;;;12.13;69.82;101653.34;6281908;22;45281;-77
2022/03/16 06:59:23;;;;;;;;;29.25;28.00;;;;;12.15;69.81;101650.69;6310639;22;44613;-78
2022/03/16 07:01:48;;;;;;;;;26.50;22.75;;;;;12.22;69.84;101672.72;6308114;22;46147;-77
2022/03/16 07:04:13;;;;;;;;;31.75;28.25;;;;;12.19;69.94;101660.41;6280520;22;45295;-80
2022/03/16 07:06:52;;;;;;;;;26.25;25.50;;;;;12.25;69.71;101675.38;6280150;22;45916;-79
2022/03/16 07:09:18;;;;;;;;;29.25;24.50;;;;;12.22;69.80;101663.06;6280520;22;45392;-78
2022/03/16 07:11:43;;;;;;;;;29.75;28.25;;;;;12.23;69.66;101659.53;6308260;22;45842;-78
2022/03/16 07:16:55;;;;;;;;;30.50;28.25;;;;;12.30;69.74;101660.44;6309245;22;45599;-80
2022/03/16 07:19:23;;;;;;;;;27.75;25.00;;;;;12.31;69.55;101663.06;6306940;22;45388;-80
2022/03/16 07:21:48;;;;;;;;;21.00;21.00;;;;;12.34;69.63;101657.81;6280010;22;46302;-79
2022/03/16 07:24:14;;;;;;;;;30.50;27.25;;;;;12.28;69.62;101641.94;6307977;22;45441;-80
2022/03/16 07:26:41;;;;;;;;;28.75;28.75;;;;;12.39;69.41;101660.47;6280477;22;45286;-80
2022/03/16 07:29:07;;;;;;;;;30.50;28.50;;;;;12.31;69.43;101643.72;6280337;22;45961;-77
2022/03/16 07:31:33;;;;;;;;;32.50;27.00;;;;;12.41;69.36;101657.84;6280137;22;46628;-80
2022/03/16 07:33:58;;;;;;;;;29.00;27.00;;;;;12.45;69.13;101670.16;6307356;22;45303;-79
2022/03/16 07:36:24;;;;;;;;;32.75;28.75;;;;;12.46;69.24;101661.38;6308546;22;45463;-78
2022/03/16 07:38:52;;;;;;;;;31.00;28.75;;;;;12.49;69.22;101671.94;6306328;22;45405;-78
2022/03/16 07:41:19;;;;;;;;;31.75;28.00;;;;;12.50;69.34;101671.06;6280036;22;48314;-77
2022/03/16 07:43:44;;;;;;;;;30.75;28.25;;;;;12.52;69.04;101669.31;6307762;22;45236;-77
2022/03/16 07:46:09;;;;;;;;;34.75;26.50;;;;;12.52;68.87;101659.63;6308242;22;45345;-78
2022/03/16 07:48:36;;;;;;;;;29.25;25.75;;;;;12.50;68.98;101649.94;6305320;22;45368;-78
2022/03/16 07:51:02;;;;;;;;;31.00;21.75;;;;;12.56;69.00;101661.41;6277398;22;47301;-77
2022/03/16 07:53:27;;;;;;;;;29.75;28.50;;;;;12.60;69.04;101661.41;6280206;22;45514;-78
2022/03/16 07:55:57;;;;;;;;;31.25;28.75;;;;;12.61;68.74;101660.53;6279867;22;45436;-78
2022/03/16 07:58:23;;;;;;;;;29.75;29.25;;;;;12.64;68.85;101660.53;6306369;22;45654;-77
2022/03/16 08:00:48;;;;;;;;;28.50;27.00;;;;;12.68;68.73;101665.84;6305481;22;47998;-77
2022/03/16 08:03:17;;;;;;;;;34.00;30.25;;;;;12.67;68.81;101665.81;6279174;22;45576;-77
2022/03/16 08:05:43;;;;;;;;;38.25;33.25;;;;;12.64;68.44;101647.31;6278438;22;45302;-78
2022/03/16 08:08:08;;;;;;;;;31.50;27.00;;;;;12.74;68.76;101665.84;6307405;22;45314;-77
2022/03/16 08:10:36;;;;;;;;;31.00;24.50;;;;;12.75;68.48;101657.06;6308538;22;45422;-79
2022/03/16 08:13:04;;;;;;;;;32.75;30.25;;;;;12.71;68.30;101657.91;6280561;22;45377;-79
2022/03/16 08:15:29;;;;;;;;;29.25;26.00;;;;;12.78;68.12;101661.47;6307896;22;45295;-83
2022/03/16 08:17:55;;;;;;;;;31.00;29.00;;;;;12.83;68.33;101653.53;6279124;22;45339;-80
2022/03/16 08:20:23;;;;;;;;;35.00;32.00;;;;;12.79;68.46;101639.44;6278222;22;46077;-81
2022/03/16 08:22:54;;;;;;;;;34.50;29.25;;;;;12.82;68.09;101647.38;6278634;22;46006;-80
2022/03/16 08:25:19;;;;;;;;;33.00;29.50;;;;;12.80;68.00;101634.16;6307239;22;45496;-82
2022/03/16 08:27:45;;;;;;;;;32.00;29.75;;;;;12.84;68.37;101645.63;6279444;22;45488;-81
2022/03/16 08:30:13;;;;;;;;;30.00;29.00;;;;;12.92;68.02;101659.72;6307924;22;46362;-81
2022/03/16 08:32:40;;;;;;;;;33.75;30.50;;;;;12.92;68.05;101649.16;6280098;22;45426;-81
2022/03/16 08:35:08;;;;;;;;;33.25;28.50;;;;;12.95;67.65;101646.50;6278659;22;45453;-82
2022/03/16 08:37:36;;;;;;;;;27.75;26.75;;;;;12.94;67.75;101647.41;6307216;22;45470;-81
2022/03/16 08:40:03;;;;;;;;;27.00;25.75;;;;;12.91;67.79;101654.41;6278028;22;47142;-82
2022/03/16 08:42:31;;;;;;;;;29.75;26.25;;;;;12.90;67.59;101650.03;6276957;22;45410;-82
2022/03/16 08:44:59;;;;;;;;;31.00;28.25;;;;;12.93;67.73;101653.53;6308555;22;45378;-82
2022/03/16 08:47:24;;;;;;;;;34.25;28.75;;;;;12.97;67.07;101662.38;6305323;22;45227;-82
2022/03/16 08:49:55;;;;;;;;;27.50;27.00;;;;;12.94;67.40;101670.31;6278794;22;46698;-82
2022/03/16 08:52:21;;;;;;;;;31.75;28.50;;;;;13.00;67.51;101681.75;6305258;22;45673;-84
2022/03/16 08:54:50;;;;;;;;;32.50;29.00;;;;;13.01;67.55;101672.06;6305737;22;45477;-81
2022/03/16 08:57:16;;;;;;;;;30.00;28.25;;;;;13.03;67.42;101678.22;6279523;22;45273;-81
2022/03/16 08:59:42;;;;;;;;;34.75;31.75;;;;;13.08;67.20;101676.47;6307648;22;45291;-80
2022/03/16 09:02:07;;;;;;;;;25.25;23.75;;;;;13.16;67.27;101692.34;6279314;22;45249;-80
2022/03/16 09:04:36;;;;;;;;;28.00;26.25;;;;;13.10;67.07;101687.94;6305939;22;45429;-81
2022/03/16 09:07:05;;;;;;;;;39.25;34.25;;;;;13.14;67.13;101681.75;6278725;22;45854;-81
2022/03/16 09:09:31;;;;;;;;;34.25;32.25;;;;;13.15;67.08;101680.91;6278069;22;47181;-81
2022/03/16 09:11:57;;;;;;;;;34.75;30.00;;;;;13.19;66.63;101677.38;6279073;22;45626;-80
2022/03/16 09:14:25;;;;;;;;;34.25;33.00;;;;;13.21;66.56;101672.97;6275948;22;45291;-81
2022/03/16 09:16:51;;;;;;;;;32.25;30.00;;;;;13.28;66.56;101679.16;6278292;22;45706;-80
2022/03/16 09:19:21;;;;;;;;;36.25;29.25;;;;;13.34;66.23;101683.56;6306086;22;45977;-80
2022/03/16 09:21:48;;;;;;;;;26.50;26.25;;;;;13.36;66.22;101690.63;6278632;22;45408;-80
2022/03/16 09:24:15;;;;;;;;;29.50;26.25;;;;;13.33;66.29;101681.81;6278268;22;45449;-82
2022/03/16 09:26:40;;;;;;;;;33.25;28.25;;;;;13.43;66.22;101686.22;6278002;22;45299;-82
2022/03/16 11:17:06;;;;;;;;;30.00;26.00;;;;;15.77;60.23;101606.28;6099247;23;45970;-89
2022/03/16 11:20:24;;;;;;;;;31.25;29.50;;;;;15.72;59.96;101586.91;6064839;23;46685;-91
2022/03/16 11:30:27;;;;;;;;;;;;;;;;;;;;;
2022/03/16 12:05:30;;;;;;;;;;;;;;;;;;;;;
2022/03/16 12:08:38;;;;;;;;;;;;;;;;;;;;;
